createdAt,value
2023-04-27T07:19:13.618Z,3009.00
2023-04-27T07:19:24.543Z,3527.00
2023-04-27T07:19:34.892Z,3354.00
2023-04-27T07:19:45.176Z,3459.00
2023-04-27T07:19:55.272Z,3415.00
2023-04-27T07:20:05.546Z,3384.00
2023-04-27T07:20:15.805Z,3370.00
2023-04-27T07:20:26.120Z,1667.00
2023-04-27T07:20:36.377Z,2088.00
2023-04-27T07:20:46.636Z,2075.00
2023-04-27T07:20:56.961Z,2063.00
2023-04-27T07:21:07.243Z,2074.00
2023-04-27T07:21:17.540Z,2087.00
2023-04-27T07:21:27.824Z,2090.00
2023-04-27T07:21:38.082Z,2008.00
2023-04-27T07:21:48.461Z,1500.00
2023-04-27T07:21:58.578Z,1367.00
2023-04-27T07:22:08.837Z,1209.00
2023-04-27T07:22:19.125Z,2784.00
2023-04-27T07:22:29.382Z,2552.00
2023-04-27T07:22:39.682Z,2649.00
2023-04-27T07:22:49.987Z,2651.00
2023-04-27T07:23:00.260Z,2625.00
2023-04-27T07:23:10.621Z,3634.00
2023-04-27T07:23:20.796Z,3653.00
2023-04-27T07:23:30.931Z,3670.00
2023-04-27T07:23:41.325Z,3680.00
2023-04-27T07:23:51.873Z,2320.00
2023-04-27T07:24:01.752Z,2264.00
2023-04-27T07:24:12.113Z,2257.00
2023-04-27T07:24:22.230Z,3682.00
2023-04-27T07:24:32.530Z,3684.00
2023-04-27T07:24:42.823Z,3693.00
2023-04-27T07:24:53.480Z,3656.00
2023-04-27T07:25:03.500Z,3675.00
2023-04-27T07:25:13.624Z,2388.00
2023-04-27T07:25:23.942Z,2871.00
2023-04-27T07:25:34.211Z,1617.00
2023-04-27T07:25:44.515Z,1339.00
2023-04-27T07:25:54.942Z,2416.00
2023-04-27T07:26:05.067Z,2666.00
2023-04-27T07:26:15.382Z,2493.00
2023-04-27T07:26:25.662Z,2410.00
2023-04-27T07:26:35.966Z,2660.00
2023-04-27T07:26:46.275Z,2653.00
2023-04-27T07:26:56.569Z,2696.00
2023-04-27T07:27:06.862Z,2606.00
2023-04-27T07:27:17.160Z,2705.00
2023-04-27T07:27:27.465Z,2482.00
2023-04-27T07:27:37.725Z,3558.00
2023-04-27T07:27:48.043Z,3552.00
2023-04-27T07:27:58.360Z,3560.00
2023-04-27T07:28:08.658Z,3547.00
2023-04-27T07:28:18.961Z,3532.00
2023-04-27T07:28:29.278Z,3501.00
2023-04-27T07:28:39.415Z,3411.00
2023-04-27T07:28:49.708Z,3419.00
2023-04-27T07:29:00.322Z,3019.00
2023-04-27T07:29:25.612Z,3323.00
2023-04-27T07:29:33.606Z,3266.00
2023-04-27T07:29:39.593Z,3169.00
2023-04-27T07:29:49.904Z,3070.00
2023-04-27T07:30:00.184Z,3119.00
2023-04-27T07:30:10.494Z,3105.00
2023-04-27T07:30:20.878Z,1989.00
2023-04-27T07:30:41.263Z,2208.00
2023-04-27T07:30:51.579Z,2380.00
2023-04-27T07:31:01.890Z,2450.00
2023-04-27T07:31:12.217Z,2354.00
2023-04-27T07:31:22.385Z,2393.00
2023-04-27T07:31:32.658Z,1802.00
2023-04-27T07:31:43.053Z,2194.00
2023-04-27T07:31:53.214Z,2242.00
2023-04-27T07:32:03.518Z,1957.00
2023-04-27T07:32:13.970Z,2048.00
2023-04-27T07:32:24.152Z,3104.00
2023-04-27T07:32:34.307Z,3148.00
2023-04-27T07:32:44.534Z,2264.00
2023-04-27T07:32:54.881Z,2655.00
2023-04-27T07:33:04.985Z,2814.00
2023-04-27T07:33:15.221Z,2792.00
2023-04-27T07:33:25.423Z,2495.00
2023-04-27T07:33:35.512Z,2787.00
2023-04-27T07:33:45.792Z,2783.00
2023-04-27T07:33:56.200Z,2793.00
2023-04-27T07:34:06.370Z,2808.00
2023-04-27T07:34:16.500Z,2834.00
2023-04-27T07:34:28.003Z,2851.00
2023-04-27T07:34:51.761Z,2867.00
2023-04-27T07:34:59.383Z,2892.00
2023-04-27T07:35:05.037Z,2912.00
2023-04-27T07:35:15.308Z,2929.00
2023-04-27T07:35:25.793Z,2952.00
2023-04-27T07:35:35.780Z,2979.00
2023-04-27T07:35:46.050Z,3014.00
2023-04-27T07:36:06.538Z,3101.00
2023-04-27T07:36:16.817Z,3137.00
2023-04-27T07:36:27.106Z,3179.00
2023-04-27T07:36:37.388Z,3214.00
2023-04-27T07:36:47.676Z,3239.00
2023-04-27T07:36:57.949Z,3270.00
2023-04-27T07:37:08.238Z,3287.00
2023-04-27T07:37:18.469Z,3317.00
2023-04-27T07:37:28.760Z,3332.00
2023-04-27T07:37:39.009Z,3336.00
2023-04-27T07:37:49.289Z,3341.00
2023-04-27T07:37:59.610Z,3339.00
2023-04-27T07:38:09.885Z,3328.00
2023-04-27T07:38:20.164Z,3307.00
2023-04-27T07:38:30.496Z,3270.00
2023-04-27T07:38:40.597Z,3245.00
2023-04-27T07:38:50.856Z,3204.00
2023-04-27T07:39:01.210Z,3180.00
2023-04-27T07:39:11.739Z,3165.00
2023-04-27T07:39:21.994Z,3164.00
2023-04-27T07:39:31.986Z,3176.00
2023-04-27T07:39:42.259Z,3198.00
2023-04-27T07:39:52.530Z,3213.00
2023-04-27T07:40:02.790Z,3229.00
2023-04-27T07:40:13.200Z,3243.00
2023-04-27T07:40:23.362Z,3247.00
2023-04-27T07:40:33.669Z,3264.00
2023-04-27T07:40:44.837Z,3289.00
2023-04-27T07:40:54.131Z,3309.00
2023-04-27T07:41:04.561Z,3335.00
2023-04-27T07:41:14.709Z,3342.00
2023-04-27T07:41:24.979Z,3339.00
2023-04-27T07:41:35.245Z,3338.00
2023-04-27T07:41:45.545Z,3326.00
2023-04-27T07:41:55.847Z,3300.00
2023-04-27T07:42:06.167Z,3266.00
2023-04-27T07:42:16.464Z,3225.00
2023-04-27T07:42:26.733Z,3197.00
2023-04-27T07:42:37.017Z,3164.00
2023-04-27T07:42:47.294Z,3139.00
2023-04-27T07:42:57.511Z,3120.00
2023-04-27T07:43:07.784Z,3105.00
2023-04-27T07:43:18.067Z,3093.00
2023-04-27T07:43:28.480Z,3087.00
2023-04-27T07:43:38.598Z,3092.00
2023-04-27T07:43:48.845Z,3105.00
2023-04-27T07:43:59.094Z,3108.00
2023-04-27T07:44:09.367Z,3126.00
2023-04-27T07:44:19.648Z,3137.00
2023-04-27T07:44:29.966Z,3168.00
2023-04-27T07:44:40.319Z,3188.00
2023-04-27T07:44:50.600Z,3213.00
2023-04-27T07:45:01.016Z,3252.00
2023-04-27T07:45:11.117Z,3281.00
2023-04-27T07:45:21.388Z,3316.00
2023-04-27T07:45:31.840Z,3348.00
2023-04-27T07:45:42.031Z,3379.00
2023-04-27T07:45:52.196Z,3378.00
2023-04-27T07:46:02.602Z,3398.00
2023-04-27T07:46:12.895Z,3378.00
2023-04-27T07:46:22.913Z,3360.00
2023-04-27T07:46:33.127Z,3339.00
2023-04-27T07:46:43.336Z,3311.00
2023-04-27T07:46:53.607Z,3278.00
2023-04-27T07:47:03.908Z,2977.00
2023-04-27T07:47:14.239Z,3244.00
2023-04-27T07:47:24.500Z,3231.00
2023-04-27T07:47:34.656Z,3215.00
2023-04-27T07:47:44.978Z,2909.00
2023-04-27T07:47:56.428Z,3180.00
2023-04-27T07:48:05.594Z,3167.00
2023-04-27T07:48:16.695Z,2962.00
2023-04-27T07:48:26.186Z,3147.00
2023-04-27T07:48:36.390Z,3055.00
2023-04-27T07:48:46.748Z,2984.00
2023-04-27T07:48:56.911Z,3006.00
2023-04-27T07:49:07.209Z,3070.00
2023-04-27T07:49:17.533Z,2838.00
2023-04-27T07:49:27.810Z,2694.00
2023-04-27T07:49:38.122Z,3922.00
2023-04-27T07:49:48.693Z,3920.00
2023-04-27T07:49:58.067Z,3914.00
2023-04-27T07:50:09.415Z,3852.00
2023-04-27T07:50:19.557Z,3964.00
2023-04-27T07:50:29.842Z,3193.00
2023-04-27T07:50:40.179Z,3206.00
2023-04-27T07:50:50.226Z,3216.00
2023-04-27T07:51:00.477Z,3227.00
2023-04-27T07:51:10.734Z,3245.00
2023-04-27T07:51:21.000Z,3256.00
2023-04-27T07:51:31.257Z,3258.00
2023-04-27T07:51:41.487Z,3261.00
2023-04-27T07:51:51.750Z,3264.00
2023-04-27T07:52:02.041Z,3262.00
2023-04-27T07:52:12.361Z,3261.00
2023-04-27T07:52:22.695Z,3264.00
2023-04-27T07:52:32.779Z,3282.00
2023-04-27T07:52:43.039Z,3276.00
2023-04-27T07:52:53.305Z,3286.00
2023-04-27T07:53:03.590Z,3284.00
2023-04-27T07:53:13.901Z,3282.00
2023-04-27T07:53:24.191Z,3279.00
2023-04-27T07:53:34.488Z,3272.00
2023-04-27T07:53:47.254Z,3262.00
2023-04-27T07:53:55.083Z,3254.00
2023-04-27T07:54:05.345Z,3235.00
2023-04-27T07:54:15.639Z,3221.00
2023-04-27T07:54:25.915Z,3205.00
2023-04-27T07:54:36.209Z,3187.00
2023-04-27T07:54:46.471Z,3167.00
2023-04-27T07:54:56.757Z,3156.00
2023-04-27T07:55:07.046Z,3136.00
2023-04-27T07:55:17.309Z,3110.00
2023-04-27T07:55:27.620Z,3092.00
2023-04-27T07:55:37.891Z,3080.00
2023-04-27T07:55:48.175Z,3071.00
2023-04-27T07:55:58.448Z,3052.00
2023-04-27T07:56:08.736Z,3047.00
2023-04-27T07:56:18.995Z,3038.00
2023-04-27T07:56:29.203Z,3036.00
2023-04-27T07:56:39.433Z,3011.00
2023-04-27T07:56:49.783Z,3007.00
2023-04-27T07:56:59.878Z,2998.00
2023-04-27T07:57:10.156Z,2999.00
2023-04-27T07:57:20.397Z,2990.00
2023-04-27T07:57:30.667Z,2990.00
2023-04-27T07:57:40.960Z,2990.00
2023-04-27T07:57:51.256Z,2977.00
2023-04-27T07:58:01.507Z,2990.00
2023-04-27T07:58:11.817Z,2976.00
2023-04-27T07:58:22.091Z,2984.00
2023-04-27T07:58:32.368Z,2994.00
2023-04-27T07:58:42.604Z,2993.00
2023-04-27T07:58:52.954Z,3004.00
2023-04-27T07:59:03.082Z,3012.00
2023-04-27T07:59:13.608Z,3023.00
2023-04-27T07:59:23.580Z,3031.00
2023-04-27T07:59:33.862Z,3026.00
2023-04-27T07:59:44.107Z,3033.00
2023-04-27T07:59:54.403Z,3007.00
2023-04-27T08:00:04.709Z,3045.00
2023-04-27T08:00:14.843Z,3035.00
2023-04-27T08:00:25.189Z,3035.00
2023-04-27T08:00:35.284Z,3023.00
2023-04-27T08:00:45.575Z,3024.00
2023-04-27T08:00:55.872Z,3006.00
2023-04-27T08:01:06.143Z,3002.00
2023-04-27T08:01:17.192Z,2993.00
2023-04-27T08:01:27.111Z,2990.00
2023-04-27T08:01:36.926Z,2977.00
2023-04-27T08:01:47.186Z,2962.00
2023-04-27T08:02:17.028Z,3011.00
2023-04-27T08:02:24.309Z,3011.00
2023-04-27T08:02:30.131Z,3020.00
2023-04-27T08:02:40.444Z,3032.00
2023-04-27T08:02:50.645Z,3026.00
2023-04-27T08:03:00.911Z,3031.00
2023-04-27T08:03:11.100Z,3025.00
2023-04-27T08:03:31.844Z,3018.00
2023-04-27T08:03:42.090Z,3016.00
2023-04-27T08:03:52.066Z,3001.00
2023-04-27T08:04:02.421Z,2989.00
2023-04-27T08:04:12.568Z,2968.00
2023-04-27T08:04:22.964Z,2941.00
2023-04-27T08:04:33.192Z,2920.00
2023-04-27T08:04:43.346Z,2890.00
2023-04-27T08:04:53.521Z,2879.00
2023-04-27T08:05:04.111Z,2855.00
2023-04-27T08:05:14.428Z,2844.00
2023-04-27T08:05:24.702Z,2831.00
2023-04-27T08:05:34.564Z,2814.00
2023-04-27T08:05:44.808Z,2795.00
2023-04-27T08:05:55.022Z,2793.00
2023-04-27T08:06:05.579Z,2787.00
2023-04-27T08:06:15.618Z,2773.00
2023-04-27T08:06:26.009Z,2762.00
2023-04-27T08:06:36.650Z,2755.00
2023-04-27T08:06:47.037Z,2757.00
2023-04-27T08:06:56.646Z,2750.00
2023-04-27T08:07:07.137Z,2751.00
2023-04-27T08:07:17.453Z,2754.00
2023-04-27T08:07:27.765Z,2733.00
2023-04-27T08:07:42.563Z,2733.00
2023-04-27T08:07:50.178Z,2710.00
2023-04-27T08:07:58.519Z,2708.00
2023-04-27T08:08:08.811Z,2691.00
2023-04-27T08:08:18.836Z,2703.00
2023-04-27T08:08:28.948Z,2669.00
2023-04-27T08:08:39.271Z,2669.00
2023-04-27T08:08:59.911Z,2651.00
2023-04-27T08:09:10.050Z,2725.00
2023-04-27T08:09:20.275Z,2658.00
2023-04-27T08:09:30.573Z,2662.00
2023-04-27T08:09:40.890Z,2668.00
2023-04-27T08:09:51.184Z,2527.00
2023-04-27T08:10:01.479Z,3453.00
2023-04-27T08:10:11.803Z,3484.00
2023-04-27T08:10:22.120Z,2973.00
2023-04-27T08:10:32.436Z,3519.00
2023-04-27T08:10:42.771Z,1322.00
2023-04-27T08:10:53.065Z,2789.00
2023-04-27T08:11:03.349Z,2791.00
2023-04-27T08:11:13.708Z,2794.00
2023-04-27T08:11:23.840Z,2790.00
2023-04-27T08:11:34.180Z,2788.00
2023-04-27T08:11:44.376Z,2779.00
2023-04-27T08:11:54.519Z,2764.00
2023-04-27T08:12:04.822Z,2760.00
2023-04-27T08:12:15.119Z,2745.00
2023-04-27T08:12:25.416Z,2734.00
2023-04-27T08:12:35.627Z,2731.00
2023-04-27T08:12:45.947Z,2715.00
2023-04-27T08:12:56.211Z,2710.00
2023-04-27T08:13:06.500Z,2713.00
2023-04-27T08:13:16.808Z,2723.00
2023-04-27T08:13:27.100Z,2739.00
2023-04-27T08:13:37.428Z,2762.00
2023-04-27T08:13:47.557Z,2769.00
2023-04-27T08:13:57.931Z,2799.00
2023-04-27T08:14:08.154Z,2812.00
2023-04-27T08:14:18.258Z,2829.00
2023-04-27T08:14:28.547Z,2847.00
2023-04-27T08:14:38.876Z,2868.00
2023-04-27T08:14:49.100Z,2878.00
2023-04-27T08:14:59.435Z,2901.00
2023-04-27T08:15:09.551Z,2918.00
2023-04-27T08:15:19.798Z,2937.00
2023-04-27T08:15:29.938Z,2954.00
2023-04-27T08:15:40.242Z,2963.00
2023-04-27T08:15:50.586Z,2988.00
2023-04-27T08:16:00.866Z,3002.00
2023-04-27T08:16:11.221Z,3006.00
2023-04-27T08:16:21.390Z,3030.00
2023-04-27T08:16:31.798Z,3038.00
2023-04-27T08:16:42.006Z,3049.00
2023-04-27T08:16:52.272Z,3068.00
2023-04-27T08:17:02.591Z,3095.00
2023-04-27T08:17:12.700Z,3053.00
2023-04-27T08:17:22.866Z,3132.00
2023-04-27T08:17:33.251Z,3139.00
2023-04-27T08:17:43.419Z,3156.00
2023-04-27T08:17:53.724Z,3158.00
2023-04-27T08:18:04.000Z,3164.00
2023-04-27T08:18:14.121Z,3158.00
2023-04-27T08:18:24.383Z,3157.00
2023-04-27T08:18:34.725Z,3147.00
2023-04-27T08:18:44.869Z,3139.00
2023-04-27T08:18:55.079Z,3122.00
2023-04-27T08:19:05.380Z,3113.00
2023-04-27T08:19:16.115Z,3102.00
2023-04-27T08:19:26.061Z,3092.00
2023-04-27T08:19:36.200Z,3068.00
2023-04-27T08:19:46.543Z,3061.00
2023-04-27T08:19:56.879Z,3041.00
2023-04-27T08:20:07.044Z,3023.00
2023-04-27T08:20:17.176Z,3014.00
2023-04-27T08:20:27.460Z,3010.00
2023-04-27T08:20:37.769Z,3008.00
2023-04-27T08:20:48.084Z,3004.00
2023-04-27T08:20:58.382Z,3005.00
2023-04-27T08:21:08.704Z,3006.00
2023-04-27T08:21:19.031Z,3008.00
2023-04-27T08:21:29.344Z,3015.00
2023-04-27T08:21:39.572Z,3030.00
2023-04-27T08:21:49.866Z,3048.00
2023-04-27T08:22:00.120Z,3065.00
2023-04-27T08:22:10.354Z,3089.00
2023-04-27T08:22:20.628Z,3121.00
2023-04-27T08:22:30.859Z,3144.00
2023-04-27T08:22:41.176Z,3186.00
2023-04-27T08:22:51.487Z,3219.00
2023-04-27T08:23:01.804Z,3318.00
2023-04-27T08:23:11.946Z,3297.00
2023-04-27T08:23:22.212Z,3317.00
2023-04-27T08:23:32.521Z,3363.00
2023-04-27T08:23:42.794Z,3394.00
2023-04-27T08:23:53.104Z,3440.00
2023-04-27T08:24:03.400Z,3472.00
2023-04-27T08:24:13.684Z,3530.00
2023-04-27T08:24:24.036Z,3574.00
2023-04-27T08:24:34.188Z,3624.00
2023-04-27T08:24:44.328Z,3607.00
2023-04-27T08:24:54.649Z,3722.00
2023-04-27T08:25:04.785Z,3764.00
2023-04-27T08:25:15.115Z,3809.00
2023-04-27T08:25:25.420Z,3843.00
2023-04-27T08:25:35.638Z,3885.00
2023-04-27T08:25:45.939Z,3903.00
2023-04-27T08:25:56.266Z,3915.00
2023-04-27T08:26:06.596Z,3924.00
2023-04-27T08:26:16.748Z,3921.00
2023-04-27T08:26:27.040Z,3915.00
2023-04-27T08:26:37.391Z,3894.00
2023-04-27T08:26:47.536Z,3885.00
2023-04-27T08:26:57.868Z,3875.00
2023-04-27T08:27:08.003Z,3862.00
2023-04-27T08:27:18.321Z,3874.00
2023-04-27T08:27:28.587Z,3866.00
2023-04-27T08:27:38.856Z,3889.00
2023-04-27T08:27:49.164Z,3894.00
2023-04-27T08:27:59.437Z,3906.00
2023-04-27T08:28:10.501Z,3749.00
2023-04-27T08:28:19.937Z,3943.00
2023-04-27T08:28:30.181Z,3960.00
2023-04-27T08:28:40.501Z,3991.00
2023-04-27T08:28:50.798Z,4006.00
2023-04-27T08:29:04.743Z,4007.00
2023-04-27T08:29:24.121Z,3512.00
2023-04-27T08:29:32.549Z,4092.00
2023-04-27T08:29:38.695Z,4155.00
2023-04-27T08:29:48.808Z,4197.00
2023-04-27T08:29:59.106Z,4248.00
2023-04-27T08:30:09.417Z,4307.00
2023-04-27T08:30:19.728Z,4346.00
2023-04-27T08:30:40.297Z,4505.00
2023-04-27T08:30:50.600Z,4570.00
2023-04-27T08:31:01.154Z,4538.00
2023-04-27T08:31:11.226Z,4717.00
2023-04-27T08:31:21.456Z,4765.00
2023-04-27T08:31:31.673Z,4808.00
2023-04-27T08:31:41.878Z,4274.00
2023-04-27T08:31:53.734Z,6214.00
2023-04-27T08:32:02.270Z,6273.00
2023-04-27T08:32:12.581Z,6316.00
2023-04-27T08:32:22.733Z,6375.00
2023-04-27T08:32:33.041Z,6443.00
2023-04-27T08:32:43.388Z,6473.00
2023-04-27T08:32:53.605Z,6535.00
2023-04-27T08:33:03.924Z,6577.00
2023-04-27T08:33:14.012Z,5225.00
2023-04-27T08:33:24.164Z,5255.00
2023-04-27T08:33:34.309Z,5266.00
2023-04-27T08:33:44.641Z,5264.00
2023-04-27T08:33:54.801Z,5264.00
2023-04-27T08:34:05.096Z,5228.00
2023-04-27T08:34:15.431Z,5220.00
2023-04-27T08:34:25.874Z,5176.00
2023-04-27T08:34:36.121Z,5158.00
2023-04-27T08:34:46.282Z,5125.00
2023-04-27T08:34:56.664Z,5115.00
2023-04-27T08:35:06.804Z,5097.00
2023-04-27T08:35:17.090Z,5066.00
2023-04-27T08:35:27.374Z,5052.00
2023-04-27T08:35:37.682Z,5038.00
2023-04-27T08:35:48.002Z,5036.00
2023-04-27T08:35:58.347Z,5054.00
2023-04-27T08:36:08.440Z,5060.00
2023-04-27T08:36:18.800Z,4106.00
2023-04-27T08:36:29.014Z,5063.00
2023-04-27T08:36:39.245Z,5080.00
2023-04-27T08:36:49.368Z,5092.00
2023-04-27T08:36:59.685Z,5111.00
2023-04-27T08:37:10.002Z,5053.00
2023-04-27T08:37:20.146Z,5138.00
2023-04-27T08:37:30.442Z,5171.00
2023-04-27T08:37:40.744Z,5193.00
2023-04-27T08:37:51.020Z,5205.00
2023-04-27T08:38:01.333Z,5227.00
2023-04-27T08:38:11.623Z,5236.00
2023-04-27T08:38:23.144Z,5277.00
2023-04-27T08:38:32.203Z,5324.00
2023-04-27T08:38:42.298Z,5393.00
2023-04-27T08:38:52.641Z,5448.00
2023-04-27T08:39:02.801Z,5475.00
2023-04-27T08:39:13.310Z,5503.00
2023-04-27T08:39:23.236Z,5515.00
2023-04-27T08:39:33.557Z,5513.00
2023-04-27T08:39:43.959Z,5516.00
2023-04-27T08:39:54.085Z,5521.00
2023-04-27T08:40:04.457Z,5547.00
2023-04-27T08:40:14.541Z,5605.00
2023-04-27T08:40:24.821Z,5686.00
2023-04-27T08:40:35.126Z,5752.00
2023-04-27T08:40:45.439Z,5800.00
2023-04-27T08:40:55.761Z,5869.00
2023-04-27T08:41:20.260Z,5903.00
2023-04-27T08:41:26.895Z,5931.00
2023-04-27T08:41:32.560Z,5918.00
2023-04-27T08:41:42.784Z,5895.00
2023-04-27T08:41:52.941Z,5868.00
2023-04-27T08:42:03.086Z,5815.00
2023-04-27T08:42:13.386Z,5767.00
2023-04-27T08:42:33.945Z,5662.00
2023-04-27T08:42:44.237Z,5604.00
2023-04-27T08:42:54.572Z,5548.00
2023-04-27T08:43:04.711Z,5492.00
2023-04-27T08:43:15.040Z,5452.00
2023-04-27T08:43:25.345Z,5399.00
2023-04-27T08:43:35.636Z,5399.00
2023-04-27T08:43:45.960Z,5381.00
2023-04-27T08:43:59.690Z,5427.00
2023-04-27T08:44:06.539Z,5471.00
2023-04-27T08:44:16.832Z,5535.00
2023-04-27T08:44:27.116Z,5592.00
2023-04-27T08:44:37.394Z,5651.00
2023-04-27T08:44:47.699Z,5691.00
2023-04-27T08:45:08.252Z,5725.00
2023-04-27T08:45:18.498Z,5716.00
2023-04-27T08:45:28.830Z,5717.00
2023-04-27T08:45:39.131Z,5700.00
2023-04-27T08:45:49.488Z,5678.00
2023-04-27T08:45:59.669Z,5653.00
2023-04-27T08:46:09.923Z,5659.00
2023-04-27T08:46:20.182Z,5664.00
2023-04-27T08:46:30.481Z,5710.00
2023-04-27T08:46:40.670Z,5633.00
2023-04-27T08:46:51.065Z,5671.00
2023-04-27T08:47:01.389Z,5651.00
2023-04-27T08:47:11.481Z,5678.00
2023-04-27T08:47:31.117Z,5674.00
2023-04-27T08:47:43.748Z,5624.00
2023-04-27T08:47:49.983Z,5442.00
2023-04-27T08:48:00.174Z,5398.00
2023-04-27T08:48:10.441Z,5360.00
2023-04-27T08:48:20.639Z,5465.00
2023-04-27T08:48:30.822Z,5377.00
2023-04-27T08:48:40.997Z,5322.00
2023-04-27T08:48:51.388Z,5276.00
2023-04-27T08:49:01.623Z,5241.00
2023-04-27T08:49:13.159Z,5204.00
2023-04-27T08:49:22.074Z,5203.00
2023-04-27T08:51:01.347Z,5184.00
2023-04-27T08:51:07.054Z,4972.00
2023-04-27T08:51:17.117Z,5335.00
2023-04-27T08:51:27.371Z,5509.00
2023-04-27T08:51:37.743Z,5683.00
2023-04-27T08:51:47.849Z,5682.00
2023-04-27T08:52:08.403Z,5949.00
2023-04-27T08:52:18.709Z,4912.00
2023-04-27T08:52:29.047Z,5049.00
2023-04-27T08:52:39.395Z,5006.00
2023-04-27T08:52:49.540Z,4633.00
2023-04-27T08:52:59.878Z,5520.00
2023-04-27T08:53:10.080Z,7606.00
2023-04-27T08:53:20.323Z,5838.00
2023-04-27T08:53:30.574Z,6600.00
2023-04-27T08:53:40.785Z,6605.00
2023-04-27T08:53:51.056Z,4125.00
2023-04-27T08:54:01.363Z,5821.00
2023-04-27T08:54:11.639Z,5717.00
2023-04-27T08:54:21.956Z,5610.00
2023-04-27T08:54:32.188Z,5463.00
2023-04-27T08:54:42.436Z,5323.00
2023-04-27T08:54:52.683Z,5186.00
2023-04-27T08:55:02.985Z,5057.00
2023-04-27T08:55:15.666Z,4936.00
2023-04-27T08:55:23.309Z,4827.00
2023-04-27T08:55:33.627Z,4713.00
2023-04-27T08:55:43.906Z,4601.00
2023-04-27T08:55:54.267Z,4495.00
2023-04-27T08:56:04.447Z,4401.00
2023-04-27T08:56:14.592Z,4301.00
2023-04-27T08:56:24.907Z,4209.00
2023-04-27T08:56:35.046Z,4134.00
2023-04-27T08:56:45.369Z,4047.00
2023-04-27T08:56:55.674Z,3960.00
2023-04-27T08:57:05.965Z,3889.00
2023-04-27T08:57:16.299Z,3839.00
2023-04-27T08:57:26.571Z,3785.00
2023-04-27T08:57:36.826Z,3755.00
2023-04-27T08:57:47.102Z,3725.00
2023-04-27T08:57:57.349Z,3716.00
2023-04-27T08:58:07.608Z,3717.00
2023-04-27T08:58:17.841Z,3729.00
2023-04-27T08:58:28.094Z,3743.00
2023-04-27T08:58:38.369Z,3769.00
2023-04-27T08:58:48.712Z,3788.00
2023-04-27T08:58:58.943Z,3795.00
2023-04-27T08:59:09.073Z,3813.00
2023-04-27T08:59:19.405Z,3824.00
2023-04-27T08:59:29.738Z,3849.00
2023-04-27T08:59:39.888Z,3883.00
2023-04-27T08:59:50.105Z,3924.00
2023-04-27T09:00:00.560Z,3957.00
2023-04-27T09:00:10.669Z,3998.00
2023-04-27T09:00:20.996Z,4028.00
2023-04-27T09:00:31.270Z,4054.00
2023-04-27T09:00:41.555Z,4089.00
2023-04-27T09:00:52.684Z,4092.00
2023-04-27T09:01:02.111Z,4092.00
2023-04-27T09:01:12.246Z,4085.00
2023-04-27T09:01:22.562Z,4068.00
2023-04-27T09:01:32.870Z,4034.00
2023-04-27T09:01:43.200Z,3995.00
2023-04-27T09:01:53.557Z,3936.00
2023-04-27T09:02:03.759Z,3872.00
2023-04-27T09:02:13.980Z,3813.00
2023-04-27T09:02:24.105Z,3750.00
2023-04-27T09:02:34.470Z,3684.00
2023-04-27T09:02:44.715Z,3618.00
2023-04-27T09:02:55.181Z,3554.00
2023-04-27T09:03:05.380Z,3488.00
2023-04-27T09:03:15.475Z,3423.00
2023-04-27T09:03:25.838Z,3381.00
2023-04-27T09:03:36.200Z,3335.00
2023-04-27T09:03:46.289Z,3290.00
2023-04-27T09:03:56.683Z,3249.00
2023-04-27T09:04:06.917Z,3214.00
2023-04-27T09:04:17.100Z,3188.00
2023-04-27T09:04:27.300Z,3173.00
2023-04-27T09:04:37.424Z,3160.00
2023-04-27T09:04:47.753Z,3144.00
2023-04-27T09:04:58.048Z,3141.00
2023-04-27T09:05:08.173Z,3146.00
2023-04-27T09:05:18.539Z,3155.00
2023-04-27T09:05:28.585Z,3173.00
2023-04-27T09:05:46.392Z,3193.00
2023-04-27T09:06:05.366Z,3228.00
2023-04-27T09:06:11.403Z,3292.00
2023-04-27T09:06:19.000Z,3341.00
2023-04-27T09:06:29.174Z,3395.00
2023-04-27T09:06:39.461Z,3447.00
2023-04-27T09:06:49.806Z,3510.00
2023-04-27T09:06:59.926Z,3576.00
2023-04-27T09:07:20.489Z,3715.00
2023-04-27T09:07:30.824Z,3793.00
2023-04-27T09:07:41.157Z,3868.00
2023-04-27T09:07:51.307Z,3921.00
2023-04-27T09:08:01.492Z,3971.00
2023-04-27T09:08:11.607Z,4034.00
2023-04-27T09:08:21.909Z,4079.00
2023-04-27T09:08:32.203Z,4155.00
2023-04-27T09:08:42.571Z,4192.00
2023-04-27T09:08:52.706Z,4243.00
2023-04-27T09:09:02.945Z,4289.00
2023-04-27T09:09:13.387Z,4348.00
2023-04-27T09:09:23.375Z,4404.00
2023-04-27T09:09:33.618Z,4443.00
2023-04-27T09:09:43.871Z,4500.00
2023-04-27T09:09:54.167Z,4546.00
2023-04-27T09:10:04.474Z,4568.00
2023-04-27T09:10:14.707Z,4603.00
2023-04-27T09:10:24.997Z,4618.00
2023-04-27T09:10:35.308Z,4648.00
2023-04-27T09:10:45.623Z,4686.00
2023-04-27T09:10:55.929Z,4723.00
2023-04-27T09:11:06.203Z,4650.00
2023-04-27T09:11:16.561Z,4791.00
2023-04-27T09:11:26.647Z,4861.00
2023-04-27T09:11:36.949Z,4945.00
2023-04-27T09:11:47.203Z,5112.00
2023-04-27T09:11:57.487Z,5274.00
2023-04-27T09:12:07.771Z,5661.00
2023-04-27T09:12:18.146Z,5957.00
2023-04-27T09:12:29.010Z,6129.00
2023-04-27T09:12:38.468Z,6476.00
2023-04-27T09:12:48.731Z,8270.00
2023-04-27T09:12:59.144Z,8148.00
2023-04-27T09:13:09.269Z,8926.00
2023-04-27T09:13:19.691Z,9131.00
2023-04-27T09:13:29.784Z,9001.00
2023-04-27T09:13:40.087Z,9791.00
2023-04-27T09:13:50.365Z,7164.00
2023-04-27T09:14:00.645Z,8476.00
2023-04-27T09:14:10.957Z,8927.00
2023-04-27T09:14:21.292Z,9457.00
2023-04-27T09:14:31.565Z,9992.00
2023-04-27T09:14:41.868Z,11361.00
2023-04-27T09:14:52.168Z,14548.00
2023-04-27T09:15:02.540Z,14052.00
2023-04-27T09:15:12.687Z,12217.00
2023-04-27T09:15:22.992Z,10034.00
2023-04-27T09:15:33.352Z,9129.00
2023-04-27T09:15:44.576Z,8702.00
2023-04-27T09:15:53.847Z,8461.00
2023-04-27T09:16:04.017Z,8325.00
2023-04-27T09:16:14.390Z,8218.00
2023-04-27T09:16:24.689Z,8154.00
2023-04-27T09:16:34.922Z,8069.00
2023-04-27T09:16:45.260Z,7972.00
2023-04-27T09:16:55.244Z,7877.00
2023-04-27T09:17:05.569Z,7851.00
2023-04-27T09:17:15.711Z,7834.00
2023-04-27T09:17:26.001Z,7848.00
2023-04-27T09:17:36.321Z,7879.00
2023-04-27T09:17:46.759Z,7865.00
2023-04-27T09:17:56.892Z,7854.00
2023-04-27T09:18:07.179Z,7788.00
2023-04-27T09:18:17.289Z,7709.00
2023-04-27T09:18:27.533Z,7591.00
2023-04-27T09:18:37.806Z,7497.00
2023-04-27T09:18:48.066Z,7395.00
2023-04-27T09:18:58.347Z,7358.00
2023-04-27T09:19:08.584Z,7321.00
2023-04-27T09:19:18.810Z,7316.00
2023-04-27T09:19:29.062Z,7279.00
2023-04-27T09:19:39.304Z,7195.00
2023-04-27T09:19:49.522Z,7100.00
2023-04-27T09:19:59.794Z,6949.00
2023-04-27T09:20:10.061Z,6819.00
2023-04-27T09:20:20.437Z,6656.00
2023-04-27T09:20:30.562Z,6552.00
2023-04-27T09:20:40.873Z,6448.00
2023-04-27T09:20:51.149Z,6379.00
2023-04-27T09:21:01.450Z,6277.00
2023-04-27T09:21:11.789Z,6172.00
2023-04-27T09:21:22.068Z,6059.00
2023-04-27T09:21:32.206Z,5947.00
2023-04-27T09:21:42.487Z,5878.00
2023-04-27T09:21:52.790Z,5857.00
2023-04-27T09:22:03.115Z,5857.00
2023-04-27T09:22:13.386Z,5812.00
2023-04-27T09:22:23.694Z,5365.00
2023-04-27T09:22:34.013Z,5898.00
2023-04-27T09:22:44.351Z,5975.00
2023-04-27T09:22:54.503Z,6048.00
2023-04-27T09:23:04.644Z,5985.00
2023-04-27T09:23:14.932Z,6301.00
2023-04-27T09:23:25.169Z,6433.00
2023-04-27T09:23:35.407Z,6512.00
2023-04-27T09:23:45.768Z,6625.00
2023-04-27T09:23:55.846Z,6689.00
2023-04-27T09:24:06.108Z,7315.00
2023-04-27T09:24:16.409Z,6778.00
2023-04-27T09:24:26.709Z,6802.00
2023-04-27T09:24:37.029Z,6824.00
2023-04-27T09:24:47.322Z,6835.00
2023-04-27T09:24:57.630Z,6811.00
2023-04-27T09:25:07.988Z,6784.00
2023-04-27T09:25:18.125Z,6730.00
2023-04-27T09:25:28.407Z,6670.00
2023-04-27T09:25:38.724Z,6559.00
2023-04-27T09:25:49.003Z,6449.00
2023-04-27T09:25:59.296Z,6375.00
2023-04-27T09:26:09.615Z,6221.00
2023-04-27T09:26:19.895Z,6099.00
2023-04-27T09:26:30.222Z,5955.00
2023-04-27T09:26:40.526Z,5838.00
2023-04-27T09:26:50.804Z,3936.00
2023-04-27T09:27:01.230Z,5647.00
2023-04-27T09:27:11.387Z,5561.00